createdAt,value
2023-01-25T00:01:21.915Z,98917.25
2023-01-25T00:03:48.287Z,98923.00
2023-01-25T00:06:14.615Z,98918.84
2023-01-25T00:08:41.033Z,98898.19
2023-01-25T00:11:07.455Z,98898.94
2023-01-25T00:13:33.817Z,98909.59
2023-01-25T00:16:04.752Z,98910.78
2023-01-25T00:18:31.424Z,98907.50
2023-01-25T00:20:57.986Z,98901.13
2023-01-25T00:23:24.347Z,98893.06
2023-01-25T00:25:57.888Z,98902.28
2023-01-25T00:28:25.106Z,98903.72
2023-01-25T00:30:51.907Z,98893.25
2023-01-25T00:33:18.211Z,98900.16
2023-01-25T00:35:45.285Z,98894.41
2023-01-25T00:38:29.120Z,98901.69
2023-01-25T00:40:55.549Z,98895.03
2023-01-25T00:43:22.127Z,98892.53
2023-01-25T00:45:48.495Z,98879.13
2023-01-25T00:48:14.864Z,98877.97
2023-01-25T00:50:41.241Z,98874.19
2023-01-25T00:53:07.612Z,98876.38
2023-01-25T00:55:34.058Z,98881.09
2023-01-25T00:58:00.411Z,98869.28
2023-01-25T01:00:26.788Z,98867.91
2023-01-25T01:02:53.144Z,98870.25
2023-01-25T01:05:19.505Z,98875.00
2023-01-25T01:07:49.422Z,98874.19
2023-01-25T01:10:15.901Z,98880.63
2023-01-25T01:12:42.258Z,98878.72
2023-01-25T01:15:09.550Z,98880.09
2023-01-25T01:17:36.104Z,98874.97
2023-01-25T01:20:02.464Z,98876.16
2023-01-25T01:22:28.823Z,98877.91
2023-01-25T01:24:55.169Z,98865.94
2023-01-25T01:27:21.507Z,98863.53
2023-01-25T01:29:47.861Z,98866.31
2023-01-25T01:32:14.319Z,98873.59
2023-01-25T01:34:40.743Z,98877.75
2023-01-25T01:37:07.093Z,98866.53
2023-01-25T01:39:33.482Z,98865.94
2023-01-25T01:41:59.830Z,98875.38
2023-01-25T01:44:49.228Z,98872.81
2023-01-25T01:47:18.069Z,98871.03
2023-01-25T01:49:51.694Z,98881.25
2023-01-25T01:52:23.527Z,98854.69
2023-01-25T01:54:57.449Z,98866.09
2023-01-25T01:57:48.600Z,98852.75
2023-01-25T02:00:23.061Z,98865.56
2023-01-25T02:02:51.171Z,98860.03
2023-01-25T02:05:22.614Z,98861.81
2023-01-25T02:07:52.299Z,98848.81
2023-01-25T02:10:20.212Z,98853.38
2023-01-25T02:12:48.119Z,98842.38
2023-01-25T02:15:14.673Z,98853.00
2023-01-25T02:17:42.305Z,98849.66
2023-01-25T02:20:22.920Z,98856.09
2023-01-25T02:22:52.059Z,98855.94
2023-01-25T02:25:18.641Z,98854.19
2023-01-25T02:27:53.012Z,98852.00
2023-01-25T02:30:19.554Z,98861.66
2023-01-25T02:32:45.940Z,98854.38
2023-01-25T02:35:19.863Z,98848.44
2023-01-25T02:37:46.565Z,98849.84
2023-01-25T02:40:12.980Z,98846.88
2023-01-25T02:42:42.400Z,98827.78
2023-01-25T02:45:14.602Z,98847.91
2023-01-25T02:47:40.966Z,98833.47
2023-01-25T02:50:08.303Z,98835.50
2023-01-25T02:52:34.720Z,98836.28
2023-01-25T02:55:01.125Z,98848.88
2023-01-25T02:57:27.458Z,98835.66
2023-01-25T02:59:53.864Z,98836.03
2023-01-25T03:02:20.220Z,98837.03
2023-01-25T03:04:46.655Z,98838.78
2023-01-25T03:07:13.336Z,98822.84
2023-01-25T03:09:39.685Z,98843.53
2023-01-25T03:12:06.296Z,98835.88
2023-01-25T03:14:32.833Z,98832.72
2023-01-25T03:16:59.255Z,98837.63
2023-01-25T03:19:25.621Z,98833.09
2023-01-25T03:21:51.993Z,98829.97
2023-01-25T03:24:18.424Z,98831.34
2023-01-25T03:27:20.063Z,98830.16
2023-01-25T03:29:46.437Z,98829.34
2023-01-25T03:32:12.861Z,98813.00
2023-01-25T03:34:39.268Z,98809.84
2023-01-25T03:37:05.659Z,98807.84
2023-01-25T03:39:32.002Z,98798.03
2023-01-25T03:41:58.424Z,98814.22
2023-01-25T03:44:24.796Z,98802.34
2023-01-25T03:46:51.225Z,98802.94
2023-01-25T03:49:18.558Z,98810.44
2023-01-25T03:51:44.970Z,98808.09
2023-01-25T03:54:11.347Z,98800.22
2023-01-25T03:56:38.626Z,98809.66
2023-01-25T03:59:05.309Z,98807.91
2023-01-25T04:01:31.904Z,98801.97
2023-01-25T04:03:58.258Z,98804.75
2023-01-25T04:06:24.621Z,98796.50
2023-01-25T04:08:50.978Z,98798.88
2023-01-25T04:11:17.357Z,98807.31
2023-01-25T04:13:43.691Z,98791.56
2023-01-25T04:16:13.778Z,98789.38
2023-01-25T04:18:40.749Z,98795.69
2023-01-25T04:21:07.244Z,98793.72
2023-01-25T04:23:33.800Z,98792.94
2023-01-25T04:26:09.290Z,98794.31
2023-01-25T04:28:36.069Z,98783.84
2023-01-25T04:31:03.656Z,98783.25
2023-01-25T04:33:30.204Z,98782.47
2023-01-25T04:35:56.768Z,98781.50
2023-01-25T04:38:23.495Z,98786.03
2023-01-25T04:40:51.744Z,98778.19
2023-01-25T04:43:19.677Z,98775.22
2023-01-25T04:45:46.761Z,98776.25
2023-01-25T04:48:13.805Z,98767.63
2023-01-25T04:50:41.726Z,98777.25
2023-01-25T04:53:09.404Z,98760.91
2023-01-25T04:55:35.864Z,98756.78
2023-01-25T04:58:03.540Z,98753.63
2023-01-25T05:00:30.902Z,98752.47
2023-01-25T05:02:57.269Z,98756.19
2023-01-25T05:05:23.632Z,98755.59
2023-01-25T05:07:49.993Z,98745.81
2023-01-25T05:10:16.385Z,98746.34
2023-01-25T05:12:43.373Z,98756.78
2023-01-25T05:15:10.428Z,98760.91
2023-01-25T05:17:37.066Z,98746.19
2023-01-25T05:20:03.813Z,98753.63
2023-01-25T05:22:30.442Z,98752.88
2023-01-25T05:24:58.993Z,98754.84
2023-01-25T05:27:25.401Z,98744.97
2023-01-25T05:29:51.744Z,98741.44
2023-01-25T05:32:22.937Z,98741.84
2023-01-25T05:34:49.517Z,98743.97
2023-01-25T05:37:18.127Z,98742.00
2023-01-25T05:39:44.847Z,98737.25
2023-01-25T05:42:16.323Z,98738.66
2023-01-25T05:44:45.302Z,98750.06
2023-01-25T05:47:14.228Z,98738.47
2023-01-25T05:49:40.609Z,98740.63
2023-01-25T05:52:06.964Z,98729.97
2023-01-25T05:54:33.360Z,98733.13
2023-01-25T05:57:00.139Z,98729.59
2023-01-25T05:59:26.538Z,98730.81
2023-01-25T06:01:52.924Z,98723.72
2023-01-25T06:04:19.318Z,98725.66
2023-01-25T06:06:45.777Z,98731.78
2023-01-25T06:09:13.415Z,98718.84
2023-01-25T06:11:42.748Z,98712.75
2023-01-25T06:14:09.136Z,98716.72
2023-01-25T06:16:35.576Z,98715.38
2023-01-25T06:19:01.974Z,98716.94
2023-01-25T06:21:28.370Z,98710.59
2023-01-25T06:23:55.058Z,98710.41
2023-01-25T06:26:21.674Z,98713.16
2023-01-25T06:28:48.258Z,98709.03
2023-01-25T06:31:17.239Z,98716.69
2023-01-25T06:33:47.233Z,98718.22
2023-01-25T06:36:15.609Z,98722.16
2023-01-25T06:38:42.745Z,98728.28
2023-01-25T06:41:12.147Z,98724.91
2023-01-25T06:43:39.105Z,98723.91
2023-01-25T06:46:07.818Z,98715.47
2023-01-25T06:48:34.983Z,98714.66
2023-01-25T06:51:07.266Z,98725.28
2023-01-25T06:53:37.368Z,98720.38
2023-01-25T06:56:09.990Z,98725.09
2023-01-25T06:58:37.742Z,98727.47
2023-01-25T07:01:07.701Z,98729.97
2023-01-25T07:03:34.547Z,98723.47
2023-01-25T07:06:02.893Z,98730.78
2023-01-25T07:08:29.455Z,98728.97
2023-01-25T07:11:07.114Z,98735.31
2023-01-25T07:13:34.299Z,98720.34
2023-01-25T07:16:06.570Z,98720.19
2023-01-25T07:18:33.992Z,98724.72
2023-01-25T07:21:11.762Z,98712.72
2023-01-25T07:23:38.692Z,98719.81
2023-01-25T07:26:06.582Z,98734.34
2023-01-25T07:28:33.153Z,98724.13
2023-01-25T07:31:07.033Z,98716.84
2023-01-25T07:33:34.213Z,98725.09
2023-01-25T07:36:05.531Z,98718.81
2023-01-25T07:38:31.964Z,98717.81
2023-01-25T07:40:58.350Z,98714.28
2023-01-25T07:43:25.255Z,98707.97
2023-01-25T07:45:52.171Z,98712.53
2023-01-25T07:48:20.094Z,98711.94
2023-01-25T07:50:49.438Z,98719.63
2023-01-25T07:53:16.927Z,98703.66
2023-01-25T07:55:43.349Z,98698.13
2023-01-25T07:58:12.944Z,98699.88
2023-01-25T08:00:40.314Z,98723.47
2023-01-25T08:03:08.003Z,98704.00
2023-01-25T08:05:34.397Z,98705.78
2023-01-25T08:08:00.811Z,98713.44
2023-01-25T08:10:27.185Z,98724.66
2023-01-25T08:12:53.521Z,98731.72
2023-01-25T08:15:19.852Z,98726.47
2023-01-25T08:17:46.279Z,98732.75
2023-01-25T08:20:13.907Z,98726.84
2023-01-25T08:22:40.311Z,98728.22
2023-01-25T08:25:07.707Z,98720.16
2023-01-25T08:27:34.282Z,98728.47
2023-01-25T08:30:00.689Z,98716.25
2023-01-25T08:32:27.064Z,98710.78
2023-01-25T08:34:53.613Z,98721.59
2023-01-25T08:37:20.011Z,98709.22
2023-01-25T08:39:46.425Z,98707.22
2023-01-25T08:42:12.777Z,98716.69
2023-01-25T08:44:39.156Z,98692.50
2023-01-25T08:47:05.565Z,98707.06
2023-01-25T08:49:34.387Z,98695.66
2023-01-25T08:52:00.909Z,98700.94
2023-01-25T08:54:27.280Z,98711.78
2023-01-25T08:56:53.673Z,98704.72
2023-01-25T08:59:20.021Z,98707.25
2023-01-25T09:01:46.461Z,98692.53
2023-01-25T09:04:12.796Z,98695.09
2023-01-25T09:06:39.241Z,98685.63
2023-01-25T09:09:05.791Z,98681.31
2023-01-25T09:11:34.483Z,98687.19
2023-01-25T09:14:00.833Z,98705.72
2023-01-25T09:16:30.558Z,98699.22
2023-01-25T09:18:59.129Z,98685.09
2023-01-25T09:21:25.582Z,98680.56
2023-01-25T09:24:05.480Z,98678.59
2023-01-25T09:26:34.752Z,98684.28
2023-01-25T09:29:01.197Z,98675.25
2023-01-25T09:31:27.865Z,98676.25
2023-01-25T09:33:54.530Z,98677.44
2023-01-25T09:36:21.230Z,98672.72
2023-01-25T09:38:48.435Z,98662.69
2023-01-25T09:41:36.912Z,98677.06
2023-01-25T09:44:22.076Z,98671.38
2023-01-25T09:47:36.605Z,98668.06
2023-01-25T09:50:33.203Z,98667.88
2023-01-25T09:53:24.248Z,98661.97
2023-01-25T09:56:09.524Z,98664.88
2023-01-25T09:58:42.998Z,98660.78
2023-01-25T10:01:37.712Z,98669.81
2023-01-25T10:04:13.035Z,98667.06
2023-01-25T10:06:46.089Z,98661.59
2023-01-25T10:09:22.675Z,98662.94
2023-01-25T10:11:49.147Z,98654.47
2023-01-25T10:14:18.185Z,98655.03
2023-01-25T10:16:47.372Z,98667.03
2023-01-25T10:19:54.414Z,98659.94
2023-01-25T10:22:25.034Z,98651.28
2023-01-25T10:25:00.854Z,98649.34
2023-01-25T10:27:51.632Z,98660.72
2023-01-25T10:30:24.815Z,98652.47
2023-01-25T10:32:56.129Z,98639.91
2023-01-25T10:35:35.156Z,98641.66
2023-01-25T10:38:16.096Z,98631.66
2023-01-25T10:40:48.551Z,98599.00
2023-01-25T10:43:20.161Z,98617.34
2023-01-25T10:45:48.094Z,98617.75
2023-01-25T10:48:24.717Z,98609.69
2023-01-25T10:50:53.716Z,98603.22
2023-01-25T10:53:39.303Z,98606.38
2023-01-25T10:56:21.014Z,98578.44
2023-01-25T10:58:50.177Z,98597.91
2023-01-25T11:01:36.474Z,98588.09
2023-01-25T11:04:03.135Z,98577.88
2023-01-25T11:06:38.628Z,98569.81
2023-01-25T11:09:29.762Z,98576.50
2023-01-25T11:11:58.822Z,98578.06
2023-01-25T11:14:27.816Z,98574.13
2023-01-25T11:16:56.049Z,98578.28
2023-01-25T11:19:39.007Z,98568.28
2023-01-25T11:22:20.517Z,98553.34
2023-01-25T11:24:47.604Z,98555.69
2023-01-25T11:27:20.195Z,98546.66
2023-01-25T11:30:08.460Z,98541.75
2023-01-25T11:32:35.303Z,98544.13
2023-01-25T11:35:02.380Z,98542.91
2023-01-25T11:37:38.698Z,98536.22
2023-01-25T11:40:34.089Z,98533.69
2023-01-25T11:43:16.540Z,98529.97
2023-01-25T11:45:45.867Z,98534.84
2023-01-25T11:48:43.406Z,98527.00
2023-01-25T11:51:25.852Z,98518.16
2023-01-25T11:54:21.204Z,98523.84
2023-01-25T11:56:58.416Z,98517.94
2023-01-25T11:59:51.793Z,98510.28
2023-01-25T12:02:50.447Z,98505.16
2023-01-25T12:05:41.298Z,98487.25
2023-01-25T12:08:31.465Z,98494.16
2023-01-25T12:11:29.475Z,98485.13
2023-01-25T12:14:14.327Z,98475.91
2023-01-25T12:17:06.118Z,98477.44
2023-01-25T12:20:04.149Z,98458.81
2023-01-25T12:23:00.083Z,98446.03
2023-01-25T12:26:02.561Z,98449.50
2023-01-25T12:28:43.150Z,98440.84
2023-01-25T12:31:16.087Z,98444.00
2023-01-25T12:33:52.388Z,98438.34
2023-01-25T12:36:40.425Z,98419.09
2023-01-25T12:39:13.955Z,98430.06
2023-01-25T12:42:04.144Z,98424.16
2023-01-25T12:44:42.231Z,98421.78
2023-01-25T12:47:23.555Z,98412.97
2023-01-25T12:50:02.466Z,98414.56
2023-01-25T12:52:35.943Z,98417.28
2023-01-25T12:55:05.746Z,98414.16
2023-01-25T12:57:50.653Z,98406.28
2023-01-25T13:00:32.875Z,98399.00
2023-01-25T13:03:08.072Z,98397.22
2023-01-25T13:06:00.646Z,98388.81
2023-01-25T13:08:48.946Z,98370.75
2023-01-25T13:11:32.842Z,98357.44
2023-01-25T13:14:17.848Z,98361.72
2023-01-25T13:17:09.258Z,98338.94
2023-01-25T13:19:36.400Z,98350.97
2023-01-25T13:22:02.941Z,98348.19
2023-01-25T13:24:31.652Z,98354.50
2023-01-25T13:26:59.446Z,98351.75
2023-01-25T13:29:31.737Z,98351.19
2023-01-25T13:31:59.975Z,98345.66
2023-01-25T13:34:42.400Z,98348.41
2023-01-25T13:37:29.968Z,98324.63
2023-01-25T13:39:57.870Z,98334.63
2023-01-25T13:42:27.583Z,98333.81
2023-01-25T13:44:57.025Z,98320.72
2023-01-25T13:47:27.067Z,98314.44
2023-01-25T13:49:59.515Z,98325.59
2023-01-25T13:52:27.887Z,98315.97
2023-01-25T13:54:57.346Z,98289.66
2023-01-25T13:57:30.876Z,98302.94
2023-01-25T14:00:10.617Z,98293.81
2023-01-25T14:02:39.575Z,98287.88
2023-01-25T14:05:07.839Z,98299.03
2023-01-25T14:07:37.183Z,98300.69
2023-01-25T14:10:11.481Z,98304.22
2023-01-25T14:12:41.010Z,98292.63
2023-01-25T14:15:17.703Z,98294.38
2023-01-25T14:17:44.267Z,98284.78
2023-01-25T14:20:19.919Z,98282.03
2023-01-25T14:22:50.645Z,98274.13
2023-01-25T14:25:19.482Z,98270.59
2023-01-25T14:27:50.595Z,98275.06
2023-01-25T14:30:32.271Z,98272.75
2023-01-25T14:33:15.281Z,98267.91
2023-01-25T14:35:54.245Z,98261.50
2023-01-25T14:38:39.413Z,98256.31
2023-01-25T14:41:14.828Z,98258.66
2023-01-25T14:43:43.515Z,98239.69
2023-01-25T14:46:26.820Z,98239.31
2023-01-25T14:49:11.570Z,98247.69
2023-01-25T14:51:45.176Z,98241.22
2023-01-25T14:54:23.871Z,98225.91
2023-01-25T14:56:53.655Z,98230.88
2023-01-25T14:59:39.170Z,98243.94
2023-01-25T15:02:27.858Z,98222.78
2023-01-25T15:05:11.113Z,98224.16
2023-01-25T15:07:47.967Z,98225.84
2023-01-25T15:10:26.909Z,98202.13
2023-01-25T15:13:11.667Z,98210.50
2023-01-25T15:15:58.268Z,98213.69
2023-01-25T15:18:43.857Z,98218.41
2023-01-25T15:21:17.417Z,98209.00
2023-01-25T15:23:47.023Z,98202.94
2023-01-25T15:26:25.102Z,98190.94
2023-01-25T15:28:53.850Z,98202.38
2023-01-25T15:31:28.614Z,98190.03
2023-01-25T15:33:57.084Z,98173.00
2023-01-25T15:36:23.591Z,98209.63
2023-01-25T15:38:50.224Z,98195.50
2023-01-25T15:41:18.543Z,98199.25
2023-01-25T15:43:46.280Z,98183.22
2023-01-25T15:46:19.458Z,98181.66
2023-01-25T15:48:46.910Z,98182.69
2023-01-25T15:51:13.519Z,98190.66
2023-01-25T15:53:40.038Z,98170.56
2023-01-25T15:56:17.349Z,98178.19
2023-01-25T15:58:54.426Z,98188.78
2023-01-25T16:01:26.990Z,98164.69
2023-01-25T16:03:58.327Z,98175.47
2023-01-25T16:06:39.884Z,98185.63
2023-01-25T16:09:19.841Z,98179.22
2023-01-25T16:11:47.977Z,98190.94
2023-01-25T16:14:14.629Z,98188.97
2023-01-25T16:16:44.867Z,98183.50
2023-01-25T16:19:17.650Z,98177.06
2023-01-25T16:21:44.081Z,98167.25
2023-01-25T16:24:11.284Z,98176.66
2023-01-25T16:26:43.460Z,98180.41
2023-01-25T16:29:11.162Z,98177.63
2023-01-25T16:31:38.044Z,98170.19
2023-01-25T16:34:04.519Z,98182.56
2023-01-25T16:36:31.512Z,98185.28
2023-01-25T16:39:09.648Z,98176.66
2023-01-25T16:41:36.196Z,98169.19
2023-01-25T16:44:02.555Z,98170.78
2023-01-25T16:46:28.956Z,98162.78
2023-01-25T16:48:57.290Z,98167.44
2023-01-25T16:51:26.505Z,98163.34
2023-01-25T16:53:58.387Z,98172.00
2023-01-25T16:56:27.611Z,98174.75
2023-01-25T16:58:55.492Z,98168.50
2023-01-25T17:01:24.350Z,98176.66
2023-01-25T17:03:51.401Z,98171.41
2023-01-25T17:06:29.961Z,98171.00
2023-01-25T17:09:00.296Z,98163.19
2023-01-25T17:11:27.041Z,98146.28
2023-01-25T17:13:56.076Z,98160.97
2023-01-25T17:16:25.099Z,98153.13
2023-01-25T17:18:56.714Z,98146.91
2023-01-25T17:21:23.845Z,98161.97
2023-01-25T17:23:50.709Z,98156.59
2023-01-25T17:26:19.017Z,98149.97
2023-01-25T17:28:45.740Z,98155.28
2023-01-25T17:31:27.558Z,98147.88
2023-01-25T17:33:55.358Z,98145.28
2023-01-25T17:36:22.222Z,98138.63
2023-01-25T17:38:48.954Z,98147.81
2023-01-25T17:41:16.985Z,98129.44
2023-01-25T17:43:43.534Z,98130.41
2023-01-25T17:46:26.000Z,98138.06
2023-01-25T17:48:53.429Z,98128.97
2023-01-25T17:51:21.494Z,98124.28
2023-01-25T17:53:48.749Z,98114.50
2023-01-25T17:56:15.308Z,98108.25
2023-01-25T17:58:41.956Z,98117.66
2023-01-25T18:01:19.556Z,98128.59
2023-01-25T18:03:47.121Z,98119.03
2023-01-25T18:06:16.879Z,98120.75
2023-01-25T18:08:45.869Z,98122.13
2023-01-25T18:11:15.414Z,98108.63
2023-01-25T18:13:44.010Z,98100.38
2023-01-25T18:16:10.704Z,98101.75
2023-01-25T18:18:39.149Z,98101.16
2023-01-25T18:21:11.409Z,98100.75
2023-01-25T18:23:38.720Z,98085.25
2023-01-25T18:26:06.705Z,98084.50
2023-01-25T18:28:33.075Z,98096.06
2023-01-25T18:31:02.236Z,98094.13
2023-01-25T18:33:28.723Z,98079.09
2023-01-25T18:35:57.374Z,98086.72
2023-01-25T18:38:23.830Z,98073.63
2023-01-25T18:40:50.182Z,98067.91
2023-01-25T18:43:17.061Z,98069.91
2023-01-25T18:45:44.203Z,98064.78
2023-01-25T18:48:13.258Z,98070.31
2023-01-25T18:50:41.390Z,98067.56
2023-01-25T18:53:09.912Z,98055.41
2023-01-25T18:55:37.535Z,98064.97
2023-01-25T18:58:05.188Z,98053.47
2023-01-25T19:00:34.674Z,98057.16
2023-01-25T19:03:01.131Z,98055.41
2023-01-25T19:05:27.547Z,98047.59
2023-01-25T19:07:54.270Z,98041.75
2023-01-25T19:10:20.721Z,98047.97
2023-01-25T19:12:47.129Z,98042.66
2023-01-25T19:15:13.687Z,98033.47
2023-01-25T19:17:40.102Z,98025.06
2023-01-25T19:20:06.774Z,98041.69
2023-01-25T19:22:33.156Z,98029.56
2023-01-25T19:24:59.565Z,98028.56
2023-01-25T19:27:26.797Z,98022.16
2023-01-25T19:29:53.336Z,98010.78
2023-01-25T19:32:19.751Z,98019.38
2023-01-25T19:34:46.117Z,98025.06
2023-01-25T19:37:12.479Z,98009.44
2023-01-25T19:39:38.838Z,98020.19
2023-01-25T19:42:06.706Z,98026.22
2023-01-25T19:44:33.054Z,97998.25
2023-01-25T19:46:59.486Z,98000.59
2023-01-25T19:49:25.872Z,98007.22
2023-01-25T19:51:54.913Z,98017.00
2023-01-25T19:54:22.935Z,98002.94
2023-01-25T19:56:50.121Z,98009.25
2023-01-25T19:59:19.791Z,97995.72
2023-01-25T20:01:46.758Z,97986.94
2023-01-25T20:04:15.969Z,97987.50
2023-01-25T20:06:43.207Z,97985.34
2023-01-25T20:09:13.859Z,97973.63
2023-01-25T20:11:40.924Z,97981.84
2023-01-25T20:14:07.970Z,98002.38
2023-01-25T20:16:35.201Z,97998.22
2023-01-25T20:19:02.415Z,97979.44
2023-01-25T20:21:31.333Z,97992.13
2023-01-25T20:24:02.411Z,97993.03
2023-01-25T20:26:32.381Z,98004.03
2023-01-25T20:29:00.202Z,98004.00
2023-01-25T20:31:29.222Z,98004.47
2023-01-25T20:33:59.152Z,97986.72
2023-01-25T20:36:28.588Z,97987.50
2023-01-25T20:38:55.056Z,97990.31
2023-01-25T20:41:22.026Z,97975.31
2023-01-25T20:43:54.039Z,97991.16
2023-01-25T20:46:21.912Z,97969.03
2023-01-25T20:48:48.872Z,97960.59
2023-01-25T20:51:16.971Z,97971.97
2023-01-25T20:53:45.043Z,97950.03
2023-01-25T20:56:12.756Z,97955.50
2023-01-25T20:58:39.187Z,97942.19
2023-01-25T21:01:14.407Z,97954.88
2023-01-25T21:03:40.973Z,97956.00
2023-01-25T21:06:07.913Z,97944.44
2023-01-25T21:08:34.523Z,97944.09
2023-01-25T21:11:01.411Z,97952.09
2023-01-25T21:13:31.345Z,97955.41
2023-01-25T21:16:05.036Z,97945.47
2023-01-25T21:18:32.312Z,97956.22
2023-01-25T21:21:14.708Z,97951.34
2023-01-25T21:23:44.764Z,97935.44
2023-01-25T21:26:16.058Z,97926.59
2023-01-25T21:28:43.138Z,97932.78
2023-01-25T21:31:15.371Z,97938.66
2023-01-25T21:33:42.401Z,97939.81
2023-01-25T21:36:11.499Z,97932.81
2023-01-25T21:38:39.379Z,97929.72
2023-01-25T21:41:08.011Z,97933.03
2023-01-25T21:43:55.018Z,97914.91
2023-01-25T21:46:26.105Z,97913.72
2023-01-25T21:49:15.182Z,97915.84
2023-01-25T21:51:49.201Z,97896.31
2023-01-25T21:54:24.079Z,97886.13
2023-01-25T21:56:53.501Z,97892.63
2023-01-25T21:59:20.174Z,97897.53
2023-01-25T22:01:47.124Z,97895.53
2023-01-25T22:04:15.575Z,97886.94
2023-01-25T22:06:42.723Z,97880.31
2023-01-25T22:09:09.835Z,97870.94
2023-01-25T22:11:36.571Z,97861.56
2023-01-25T22:14:03.206Z,97855.09
2023-01-25T22:16:30.202Z,97862.00
2023-01-25T22:18:56.977Z,97877.78
2023-01-25T22:21:25.829Z,97871.38
2023-01-25T22:23:52.860Z,97873.16
2023-01-25T22:26:24.478Z,97879.38
2023-01-25T22:28:52.216Z,97879.53
2023-01-25T22:31:21.171Z,97867.59
2023-01-25T22:33:48.665Z,97875.38
2023-01-25T22:36:16.841Z,97869.50
2023-01-25T22:38:43.452Z,97847.41
2023-01-25T22:41:17.838Z,97855.72
2023-01-25T22:43:44.639Z,97858.25
2023-01-25T22:46:13.665Z,97849.09
2023-01-25T22:48:40.071Z,97852.53
2023-01-25T22:51:12.792Z,97863.53
2023-01-25T22:53:39.196Z,97870.22
2023-01-25T22:56:09.824Z,97847.31
2023-01-25T22:58:37.678Z,97855.72
2023-01-25T23:01:07.442Z,97846.91
2023-01-25T23:03:33.872Z,97840.53
2023-01-25T23:06:01.947Z,97822.94
2023-01-25T23:08:33.726Z,97823.34
2023-01-25T23:11:06.679Z,97834.63
2023-01-25T23:13:33.583Z,97831.31
2023-01-25T23:16:04.540Z,97808.25
2023-01-25T23:18:50.071Z,97813.47
2023-01-25T23:21:19.406Z,97792.25
2023-01-25T23:23:46.708Z,97802.34
2023-01-25T23:26:15.227Z,97793.34
2023-01-25T23:28:42.629Z,97794.94
2023-01-25T23:31:18.611Z,97788.66
2023-01-25T23:33:56.127Z,97773.19
2023-01-25T23:36:27.878Z,97781.03
2023-01-25T23:38:55.736Z,97785.53
2023-01-25T23:41:26.189Z,97784.59
2023-01-25T23:43:53.018Z,97764.88
2023-01-25T23:46:19.488Z,97762.16
2023-01-25T23:48:46.798Z,97777.41
2023-01-25T23:51:15.533Z,97768.44
2023-01-25T23:53:42.595Z,97761.38
2023-01-25T23:56:18.419Z,97777.53
2023-01-25T23:58:45.142Z,97775.34
